Time,TemperatureF,DewpointF,PressureIn,WindDirection,WindDirectionDegrees,WindSpeedMPH,WindSpeedGustMPH,Humidity,HourlyPrecipIn,Conditions,Clouds,dailyrainin,SoftwareType,DateUTC
2013-09-24 00:21:00,77.0,38.0,29.67,NE,46,5.0,9.0,25,0.00,,,0.00,,2013-09-24 07:21:00,
2013-09-24 00:32:00,77.0,38.0,29.67,NE,46,5.0,9.0,25,0.00,,,0.00,,2013-09-24 07:32:00,
2013-09-24 00:52:00,76.0,39.0,29.67,NNE,32,10.0,18.0,26,0.00,,,0.00,,2013-09-24 07:52:00,
2013-09-24 01:22:00,76.0,39.0,29.66,ESE,111,4.0,9.0,26,0.00,,,0.00,,2013-09-24 08:22:00,
2013-09-24 01:32:00,76.0,39.0,29.66,ESE,111,4.0,9.0,26,0.00,,,0.00,,2013-09-24 08:32:00,
2013-09-24 01:52:00,76.0,38.0,29.66,ENE,70,1.0,6.0,25,0.00,,,0.00,,2013-09-24 08:52:00,
2013-09-24 02:21:00,76.0,38.0,29.66,East,93,2.0,5.0,25,0.00,,,0.00,,2013-09-24 09:21:00,
2013-09-24 02:33:00,76.0,38.0,29.66,East,93,2.0,5.0,25,0.00,,,0.00,,2013-09-24 09:33:00,
2013-09-24 05:52:00,74.0,39.0,29.65,NE,41,4.0,7.0,28,0.00,,,0.00,,2013-09-24 12:52:00,
2013-09-24 07:21:00,73.0,38.0,29.67,North,0,0.0,1.0,28,0.00,,,0.00,,2013-09-24 14:21:00,
2013-09-24 07:32:00,73.0,38.0,29.67,North,0,0.0,1.0,28,0.00,,,0.00,,2013-09-24 14:32:00,
2013-09-24 07:52:00,73.0,38.0,29.67,North,0,0.0,0.0,28,0.00,,,0.00,,2013-09-24 14:52:00,
2013-09-24 08:22:00,74.0,39.0,29.68,North,0,0.0,0.0,28,0.00,,,0.00,,2013-09-24 15:22:00,
2013-09-24 08:33:00,74.0,39.0,29.68,North,0,0.0,0.0,28,0.00,,,0.00,,2013-09-24 15:33:00,
2013-09-24 08:53:00,76.0,40.0,29.69,North,0,0.0,0.0,27,0.00,,,0.00,,2013-09-24 15:53:00,
2013-09-24 09:22:00,76.0,41.0,29.70,North,0,0.0,1.0,28,0.00,,,0.00,,2013-09-24 16:22:00,
2013-09-24 09:33:00,76.0,41.0,29.70,North,0,0.0,1.0,28,0.00,,,0.00,,2013-09-24 16:33:00,
2013-09-24 09:53:00,77.0,42.0,29.70,North,0,0.0,2.0,29,0.00,,,0.00,,2013-09-24 16:53:00,
2013-09-24 10:23:00,75.0,44.0,29.70,SSE,158,1.0,5.0,33,0.00,,,0.00,,2013-09-24 17:23:00,
2013-09-24 10:33:00,75.0,44.0,29.70,SSE,158,1.0,5.0,33,0.00,,,0.00,,2013-09-24 17:33:00,
2013-09-24 10:54:00,75.0,45.0,29.70,North,0,0.0,6.0,34,0.00,,,0.00,,2013-09-24 17:54:00,
2013-09-24 11:22:00,75.0,45.0,29.70,SSE,164,1.0,7.0,35,0.00,,,0.00,,2013-09-24 18:22:00,
2013-09-24 11:32:00,75.0,45.0,29.70,SSE,164,1.0,7.0,35,0.00,,,0.00,,2013-09-24 18:32:00,
2013-09-24 11:52:00,75.0,45.0,29.70,SSE,159,5.0,9.0,35,0.00,,,0.00,,2013-09-24 18:52:00,
2013-09-24 12:22:00,72.0,46.0,29.69,SSE,163,7.0,14.0,40,0.00,,,0.00,,2013-09-24 19:22:00,
2013-09-24 12:32:00,72.0,46.0,29.69,SSE,163,7.0,14.0,40,0.00,,,0.00,,2013-09-24 19:32:00,
2013-09-24 12:52:00,74.0,45.0,29.67,South,169,9.0,14.0,36,0.00,,,0.00,,2013-09-24 19:52:00,
2013-09-24 13:22:00,74.0,44.0,29.67,South,179,11.0,18.0,34,0.00,,,0.00,,2013-09-24 20:22:00,
2013-09-24 13:32:00,74.0,44.0,29.67,South,179,11.0,18.0,34,0.00,,,0.00,,2013-09-24 20:32:00,
2013-09-24 13:52:00,73.0,43.0,29.66,SSE,168,11.0,16.0,34,0.00,,,0.00,,2013-09-24 20:52:00,
2013-09-24 14:21:00,76.0,44.0,29.65,SSE,168,7.0,14.0,32,0.00,,,0.00,,2013-09-24 21:21:00,
2013-09-24 14:33:00,76.0,44.0,29.65,SSE,168,7.0,14.0,32,0.00,,,0.00,,2013-09-24 21:33:00,
2013-09-24 14:54:00,76.0,46.0,29.64,South,189,9.0,15.0,34,0.00,,,0.00,,2013-09-24 21:54:00,
2013-09-24 15:23:00,76.0,46.0,29.63,South,172,4.0,11.0,34,0.00,,,0.00,,2013-09-24 22:23:00,
2013-09-24 15:34:00,76.0,46.0,29.63,South,172,4.0,11.0,34,0.00,,,0.00,,2013-09-24 22:34:00,
2013-09-24 15:53:00,75.0,45.0,29.64,SSW,192,6.0,15.0,35,0.00,,,0.00,,2013-09-24 22:53:00,
2013-09-24 16:22:00,74.0,47.0,29.63,SSW,196,7.0,14.0,39,0.00,,,0.00,,2013-09-24 23:22:00,
2013-09-24 16:33:00,74.0,47.0,29.63,SSW,196,7.0,14.0,39,0.00,,,0.00,,2013-09-24 23:33:00,
2013-09-24 16:53:00,73.0,49.0,29.62,South,184,5.0,15.0,42,0.00,,,0.00,,2013-09-24 23:53:00,
2013-09-24 17:02:00,73.0,49.0,29.62,South,184,5.0,15.0,42,0.00,,,0.00,,2013-09-25 00:02:00,
2013-09-24 17:22:00,72.0,49.0,29.61,South,189,6.0,16.0,45,0.00,,,0.00,,2013-09-25 00:22:00,
2013-09-24 17:33:00,72.0,49.0,29.61,South,189,6.0,16.0,45,0.00,,,0.00,,2013-09-25 00:33:00,
2013-09-24 17:52:00,72.0,48.0,29.62,SW,233,5.0,13.0,43,0.00,,,0.00,,2013-09-25 00:52:00,
2013-09-24 18:21:00,74.0,46.0,29.61,WSW,247,3.0,11.0,37,0.00,,,0.00,,2013-09-25 01:21:00,
2013-09-24 18:32:00,74.0,46.0,29.61,WSW,247,3.0,11.0,37,0.00,,,0.00,,2013-09-25 01:32:00,
2013-09-24 18:52:00,73.0,47.0,29.61,WSW,249,8.0,10.0,39,0.00,,,0.00,,2013-09-25 01:52:00,
2013-09-24 19:52:00,71.0,47.0,29.60,North,0,0.0,8.0,42,0.00,,,0.00,,2013-09-25 02:52:00,
2013-09-24 20:23:00,70.0,47.0,29.61,West,261,6.0,14.0,44,0.00,,,0.00,,2013-09-25 03:23:00,
2013-09-24 20:33:00,70.0,47.0,29.61,West,261,6.0,14.0,44,0.00,,,0.00,,2013-09-25 03:33:00,
2013-09-24 20:54:00,70.0,48.0,29.61,West,260,12.0,15.0,45,0.00,,,0.00,,2013-09-25 03:54:00,
2013-09-24 21:14:00,69.0,47.0,29.61,North,0,0.0,13.0,46,0.00,,,0.00,,2013-09-25 04:14:00,
2013-09-24 21:24:00,69.0,47.0,29.61,North,0,0.0,13.0,46,0.00,,,0.00,,2013-09-25 04:24:00,
2013-09-24 21:54:00,70.0,47.0,29.62,WSW,243,8.0,11.0,44,0.00,,,0.00,,2013-09-25 04:54:00,
2013-09-24 22:23:00,69.0,47.0,29.62,WSW,253,7.0,9.0,45,0.00,,,0.00,,2013-09-25 05:23:00,
2013-09-24 22:33:00,69.0,47.0,29.62,WSW,253,7.0,9.0,45,0.00,,,0.00,,2013-09-25 05:33:00,
2013-09-24 22:53:00,69.0,47.0,29.62,WSW,252,2.0,8.0,45,0.00,,,0.00,,2013-09-25 05:53:00,
2013-09-24 23:23:00,69.0,47.0,29.60,North,0,0.0,3.0,46,0.00,,,0.00,,2013-09-25 06:23:00,
2013-09-24 23:52:00,68.0,47.0,29.60,North,0,0.0,2.0,47,0.00,,,0.00,,2013-09-25 06:52:00,